sensor_id;sensor_type;location;lat;lon;timestamp;P1;durP1;ratioP1;P2;durP2;ratioP2
43990;SDS011;29654;50.784;20.604;2023-02-26T00:02:25;3.00;;;2.45;;
43990;SDS011;29654;50.784;20.604;2023-02-26T00:07:27;3.35;;;2.50;;
43990;SDS011;29654;50.784;20.604;2023-02-26T00:12:30;3.97;;;3.22;;
43990;SDS011;29654;50.784;20.604;2023-02-26T00:17:40;5.00;;;3.00;;
43990;SDS011;29654;50.784;20.604;2023-02-26T00:22:48;4.15;;;2.25;;
43990;SDS011;29654;50.784;20.604;2023-02-26T00:27:52;5.68;;;2.60;;
43990;SDS011;29654;50.784;20.604;2023-02-26T00:32:56;3.25;;;2.78;;
43990;SDS011;29654;50.784;20.604;2023-02-26T00:38:00;5.43;;;3.10;;
43990;SDS011;29654;50.784;20.604;2023-02-26T00:43:06;3.50;;;3.20;;
43990;SDS011;29654;50.784;20.604;2023-02-26T00:48:15;6.38;;;5.45;;
43990;SDS011;29654;50.784;20.604;2023-02-26T00:53:37;3.85;;;3.55;;
43990;SDS011;29654;50.784;20.604;2023-02-26T00:58:47;4.43;;;3.42;;
43990;SDS011;29654;50.784;20.604;2023-02-26T01:03:51;3.88;;;3.20;;
43990;SDS011;29654;50.784;20.604;2023-02-26T01:08:57;3.80;;;2.85;;
43990;SDS011;29654;50.784;20.604;2023-02-26T01:14:06;3.08;;;2.55;;
43990;SDS011;29654;50.784;20.604;2023-02-26T01:19:15;3.50;;;3.10;;
43990;SDS011;29654;50.784;20.604;2023-02-26T01:24:27;4.03;;;3.60;;
43990;SDS011;29654;50.784;20.604;2023-02-26T01:29:32;3.13;;;2.83;;
43990;SDS011;29654;50.784;20.604;2023-02-26T01:34:38;3.10;;;2.78;;
43990;SDS011;29654;50.784;20.604;2023-02-26T01:39:46;3.00;;;2.70;;
43990;SDS011;29654;50.784;20.604;2023-02-26T01:45:04;3.35;;;2.70;;
43990;SDS011;29654;50.784;20.604;2023-02-26T01:50:16;3.30;;;2.83;;
43990;SDS011;29654;50.784;20.604;2023-02-26T01:55:23;3.50;;;2.80;;
43990;SDS011;29654;50.784;20.604;2023-02-26T02:00:29;2.90;;;2.70;;
43990;SDS011;29654;50.784;20.604;2023-02-26T02:05:37;4.40;;;3.22;;
43990;SDS011;29654;50.784;20.604;2023-02-26T02:10:44;5.45;;;2.90;;
43990;SDS011;29654;50.784;20.604;2023-02-26T02:15:53;3.53;;;3.03;;
43990;SDS011;29654;50.784;20.604;2023-02-26T02:21:14;3.05;;;2.67;;
43990;SDS011;29654;50.784;20.604;2023-02-26T02:26:50;2.72;;;2.10;;
43990;SDS011;29654;50.784;20.604;2023-02-26T02:32:02;2.45;;;1.90;;
43990;SDS011;29654;50.784;20.604;2023-02-26T02:37:11;3.05;;;2.50;;
43990;SDS011;29654;50.784;20.604;2023-02-26T02:42:23;2.67;;;2.10;;
43990;SDS011;29654;50.784;20.604;2023-02-26T02:47:32;2.10;;;1.88;;
43990;SDS011;29654;50.784;20.604;2023-02-26T02:52:40;3.13;;;2.38;;
43990;SDS011;29654;50.784;20.604;2023-02-26T02:57:51;3.25;;;2.10;;
43990;SDS011;29654;50.784;20.604;2023-02-26T03:03:02;3.97;;;1.80;;
43990;SDS011;29654;50.784;20.604;2023-02-26T03:08:11;2.20;;;2.00;;
43990;SDS011;29654;50.784;20.604;2023-02-26T03:13:20;3.03;;;2.40;;
43990;SDS011;29654;50.784;20.604;2023-02-26T03:18:38;2.80;;;2.20;;
43990;SDS011;29654;50.784;20.604;2023-02-26T03:23:53;3.15;;;2.85;;
43990;SDS011;29654;50.784;20.604;2023-02-26T03:29:02;4.78;;;2.60;;
43990;SDS011;29654;50.784;20.604;2023-02-26T03:34:12;4.25;;;3.00;;
43990;SDS011;29654;50.784;20.604;2023-02-26T03:39:21;3.58;;;2.95;;
43990;SDS011;29654;50.784;20.604;2023-02-26T03:44:32;4.45;;;2.83;;
43990;SDS011;29654;50.784;20.604;2023-02-26T03:49:42;4.18;;;2.33;;
43990;SDS011;29654;50.784;20.604;2023-02-26T03:54:51;4.10;;;2.88;;
43990;SDS011;29654;50.784;20.604;2023-02-26T04:00:21;4.60;;;3.05;;
43990;SDS011;29654;50.784;20.604;2023-02-26T04:05:27;5.50;;;3.00;;
43990;SDS011;29654;50.784;20.604;2023-02-26T04:10:35;4.57;;;2.92;;
43990;SDS011;29654;50.784;20.604;2023-02-26T04:15:43;3.55;;;2.33;;
43990;SDS011;29654;50.784;20.604;2023-02-26T04:20:47;4.82;;;3.03;;
43990;SDS011;29654;50.784;20.604;2023-02-26T04:25:50;3.92;;;3.10;;
43990;SDS011;29654;50.784;20.604;2023-02-26T04:30:53;4.28;;;3.33;;
43990;SDS011;29654;50.784;20.604;2023-02-26T04:35:57;3.80;;;3.05;;
43990;SDS011;29654;50.784;20.604;2023-02-26T04:41:01;4.32;;;3.40;;
43990;SDS011;29654;50.784;20.604;2023-02-26T04:46:04;4.45;;;3.28;;
43990;SDS011;29654;50.784;20.604;2023-02-26T04:51:10;5.32;;;3.22;;
43990;SDS011;29654;50.784;20.604;2023-02-26T04:56:12;4.28;;;3.22;;
43990;SDS011;29654;50.784;20.604;2023-02-26T05:01:15;3.65;;;3.15;;
43990;SDS011;29654;50.784;20.604;2023-02-26T05:06:19;3.08;;;2.67;;
43990;SDS011;29654;50.784;20.604;2023-02-26T05:11:22;3.88;;;3.38;;
43990;SDS011;29654;50.784;20.604;2023-02-26T05:16:25;7.53;;;3.42;;
43990;SDS011;29654;50.784;20.604;2023-02-26T05:21:28;6.30;;;3.88;;
43990;SDS011;29654;50.784;20.604;2023-02-26T05:26:32;4.68;;;3.70;;
43990;SDS011;29654;50.784;20.604;2023-02-26T05:31:36;5.30;;;3.65;;
43990;SDS011;29654;50.784;20.604;2023-02-26T05:36:40;7.43;;;3.50;;
43990;SDS011;29654;50.784;20.604;2023-02-26T05:41:42;4.13;;;3.55;;
43990;SDS011;29654;50.784;20.604;2023-02-26T05:46:45;5.20;;;3.92;;
43990;SDS011;29654;50.784;20.604;2023-02-26T05:51:49;4.55;;;3.47;;
43990;SDS011;29654;50.784;20.604;2023-02-26T05:56:52;4.90;;;3.05;;
43990;SDS011;29654;50.784;20.604;2023-02-26T06:01:55;4.53;;;3.72;;
43990;SDS011;29654;50.784;20.604;2023-02-26T06:07:00;4.75;;;3.65;;
43990;SDS011;29654;50.784;20.604;2023-02-26T06:12:03;4.53;;;3.65;;
43990;SDS011;29654;50.784;20.604;2023-02-26T06:17:06;4.55;;;4.15;;
43990;SDS011;29654;50.784;20.604;2023-02-26T06:22:10;10.38;;;7.20;;
43990;SDS011;29654;50.784;20.604;2023-02-26T06:27:13;9.63;;;7.32;;
43990;SDS011;29654;50.784;20.604;2023-02-26T06:32:15;6.45;;;5.10;;
43990;SDS011;29654;50.784;20.604;2023-02-26T06:37:19;7.30;;;5.22;;
43990;SDS011;29654;50.784;20.604;2023-02-26T06:42:22;8.70;;;7.13;;
43990;SDS011;29654;50.784;20.604;2023-02-26T06:47:24;8.82;;;6.80;;
43990;SDS011;29654;50.784;20.604;2023-02-26T06:52:28;6.10;;;4.65;;
43990;SDS011;29654;50.784;20.604;2023-02-26T06:57:31;7.07;;;4.70;;
43990;SDS011;29654;50.784;20.604;2023-02-26T07:02:34;3.97;;;3.58;;
43990;SDS011;29654;50.784;20.604;2023-02-26T07:07:38;4.18;;;3.25;;
43990;SDS011;29654;50.784;20.604;2023-02-26T07:12:40;4.63;;;3.30;;
43990;SDS011;29654;50.784;20.604;2023-02-26T07:17:43;5.38;;;3.42;;
43990;SDS011;29654;50.784;20.604;2023-02-26T07:22:47;3.42;;;3.05;;
43990;SDS011;29654;50.784;20.604;2023-02-26T07:27:50;5.25;;;3.55;;
43990;SDS011;29654;50.784;20.604;2023-02-26T07:32:53;5.40;;;3.60;;
43990;SDS011;29654;50.784;20.604;2023-02-26T07:37:57;3.83;;;3.22;;
43990;SDS011;29654;50.784;20.604;2023-02-26T07:43:00;7.10;;;4.60;;
43990;SDS011;29654;50.784;20.604;2023-02-26T07:48:03;4.32;;;3.92;;
43990;SDS011;29654;50.784;20.604;2023-02-26T07:53:07;6.07;;;3.97;;
43990;SDS011;29654;50.784;20.604;2023-02-26T07:58:09;5.30;;;3.47;;
43990;SDS011;29654;50.784;20.604;2023-02-26T08:03:12;5.70;;;4.60;;
43990;SDS011;29654;50.784;20.604;2023-02-26T08:08:16;5.10;;;4.60;;
43990;SDS011;29654;50.784;20.604;2023-02-26T08:13:18;5.70;;;3.65;;
43990;SDS011;29654;50.784;20.604;2023-02-26T08:18:21;5.15;;;4.10;;
43990;SDS011;29654;50.784;20.604;2023-02-26T08:23:25;4.70;;;4.13;;
43990;SDS011;29654;50.784;20.604;2023-02-26T08:28:27;5.65;;;3.95;;
43990;SDS011;29654;50.784;20.604;2023-02-26T08:33:30;5.38;;;4.63;;
43990;SDS011;29654;50.784;20.604;2023-02-26T08:38:34;6.45;;;5.13;;
43990;SDS011;29654;50.784;20.604;2023-02-26T08:43:37;5.32;;;4.65;;
43990;SDS011;29654;50.784;20.604;2023-02-26T08:48:39;3.63;;;3.28;;
43990;SDS011;29654;50.784;20.604;2023-02-26T08:53:43;4.30;;;3.50;;
43990;SDS011;29654;50.784;20.604;2023-02-26T08:58:46;4.80;;;3.63;;
43990;SDS011;29654;50.784;20.604;2023-02-26T09:03:49;4.30;;;3.67;;
43990;SDS011;29654;50.784;20.604;2023-02-26T09:08:53;5.50;;;3.97;;
43990;SDS011;29654;50.784;20.604;2023-02-26T09:13:55;4.75;;;3.13;;
43990;SDS011;29654;50.784;20.604;2023-02-26T09:18:58;5.15;;;3.35;;
43990;SDS011;29654;50.784;20.604;2023-02-26T09:24:02;3.30;;;3.00;;
43990;SDS011;29654;50.784;20.604;2023-02-26T09:29:05;3.67;;;2.78;;
43990;SDS011;29654;50.784;20.604;2023-02-26T09:34:08;4.40;;;2.72;;
43990;SDS011;29654;50.784;20.604;2023-02-26T09:39:13;3.45;;;3.10;;
43990;SDS011;29654;50.784;20.604;2023-02-26T09:44:16;3.63;;;3.33;;
43990;SDS011;29654;50.784;20.604;2023-02-26T09:49:38;4.97;;;3.67;;
43990;SDS011;29654;50.784;20.604;2023-02-26T09:54:53;3.20;;;2.90;;
43990;SDS011;29654;50.784;20.604;2023-02-26T10:00:00;3.45;;;3.15;;
43990;SDS011;29654;50.784;20.604;2023-02-26T10:05:17;3.42;;;3.13;;
43990;SDS011;29654;50.784;20.604;2023-02-26T10:10:27;3.47;;;3.17;;
43990;SDS011;29654;50.784;20.604;2023-02-26T10:15:36;4.72;;;3.35;;
43990;SDS011;29654;50.784;20.604;2023-02-26T10:20:46;4.82;;;3.50;;
43990;SDS011;29654;50.784;20.604;2023-02-26T10:26:00;6.72;;;4.50;;
43990;SDS011;29654;50.784;20.604;2023-02-26T10:31:11;4.72;;;3.75;;
43990;SDS011;29654;50.784;20.604;2023-02-26T10:36:23;4.82;;;3.67;;
43990;SDS011;29654;50.784;20.604;2023-02-26T10:41:32;4.38;;;2.95;;
43990;SDS011;29654;50.784;20.604;2023-02-26T10:46:39;3.42;;;3.10;;
43990;SDS011;29654;50.784;20.604;2023-02-26T10:51:51;3.38;;;2.92;;
43990;SDS011;29654;50.784;20.604;2023-02-26T10:56:56;3.78;;;2.60;;
43990;SDS011;29654;50.784;20.604;2023-02-26T11:01:59;3.50;;;2.33;;
43990;SDS011;29654;50.784;20.604;2023-02-26T11:07:02;2.40;;;1.92;;
43990;SDS011;29654;50.784;20.604;2023-02-26T11:12:12;3.42;;;2.63;;
43990;SDS011;29654;50.784;20.604;2023-02-26T11:17:17;3.33;;;2.40;;
43990;SDS011;29654;50.784;20.604;2023-02-26T11:22:23;3.17;;;1.92;;
43990;SDS011;29654;50.784;20.604;2023-02-26T11:27:31;2.97;;;2.20;;
43990;SDS011;29654;50.784;20.604;2023-02-26T11:32:38;2.35;;;2.08;;
43990;SDS011;29654;50.784;20.604;2023-02-26T11:37:41;2.67;;;1.92;;
43990;SDS011;29654;50.784;20.604;2023-02-26T11:42:51;3.65;;;2.60;;
43990;SDS011;29654;50.784;20.604;2023-02-26T11:47:57;3.17;;;2.53;;
43990;SDS011;29654;50.784;20.604;2023-02-26T11:53:05;3.47;;;1.90;;
43990;SDS011;29654;50.784;20.604;2023-02-26T11:58:20;2.85;;;2.33;;
43990;SDS011;29654;50.784;20.604;2023-02-26T12:03:25;2.70;;;2.25;;
43990;SDS011;29654;50.784;20.604;2023-02-26T12:08:30;2.30;;;1.90;;
43990;SDS011;29654;50.784;20.604;2023-02-26T12:13:39;2.67;;;1.88;;
43990;SDS011;29654;50.784;20.604;2023-02-26T12:18:59;2.45;;;1.75;;
43990;SDS011;29654;50.784;20.604;2023-02-26T12:24:18;3.40;;;2.17;;
43990;SDS011;29654;50.784;20.604;2023-02-26T12:29:49;2.28;;;1.85;;
43990;SDS011;29654;50.784;20.604;2023-02-26T12:35:15;2.78;;;1.80;;
43990;SDS011;29654;50.784;20.604;2023-02-26T12:40:54;2.85;;;1.60;;
43990;SDS011;29654;50.784;20.604;2023-02-26T12:46:44;2.17;;;1.98;;
43990;SDS011;29654;50.784;20.604;2023-02-26T12:52:08;2.33;;;2.13;;
43990;SDS011;29654;50.784;20.604;2023-02-26T12:57:46;2.30;;;2.00;;
43990;SDS011;29654;50.784;20.604;2023-02-26T13:03:11;4.15;;;2.65;;
43990;SDS011;29654;50.784;20.604;2023-02-26T13:08:42;3.10;;;2.08;;
43990;SDS011;29654;50.784;20.604;2023-02-26T13:13:59;6.68;;;3.42;;
43990;SDS011;29654;50.784;20.604;2023-02-26T13:19:22;2.58;;;2.08;;
43990;SDS011;29654;50.784;20.604;2023-02-26T13:24:35;2.10;;;1.55;;
43990;SDS011;29654;50.784;20.604;2023-02-26T13:29:43;1.60;;;1.50;;
43990;SDS011;29654;50.784;20.604;2023-02-26T13:34:53;1.85;;;1.55;;
43990;SDS011;29654;50.784;20.604;2023-02-26T13:40:01;1.50;;;1.35;;
43990;SDS011;29654;50.784;20.604;2023-02-26T13:45:43;1.63;;;1.48;;
43990;SDS011;29654;50.784;20.604;2023-02-26T13:51:07;3.13;;;2.15;;
43990;SDS011;29654;50.784;20.604;2023-02-26T13:56:17;3.38;;;1.75;;
43990;SDS011;29654;50.784;20.604;2023-02-26T14:01:26;3.05;;;1.67;;
43990;SDS011;29654;50.784;20.604;2023-02-26T14:06:41;2.25;;;1.80;;
43990;SDS011;29654;50.784;20.604;2023-02-26T14:11:46;1.65;;;1.50;;
43990;SDS011;29654;50.784;20.604;2023-02-26T14:17:25;3.25;;;2.30;;
43990;SDS011;29654;50.784;20.604;2023-02-26T14:22:34;2.20;;;2.00;;
43990;SDS011;29654;50.784;20.604;2023-02-26T14:27:41;2.10;;;1.90;;
43990;SDS011;29654;50.784;20.604;2023-02-26T14:32:46;3.40;;;2.17;;
43990;SDS011;29654;50.784;20.604;2023-02-26T14:37:55;4.47;;;3.15;;
43990;SDS011;29654;50.784;20.604;2023-02-26T14:43:04;4.32;;;3.08;;
43990;SDS011;29654;50.784;20.604;2023-02-26T14:48:13;4.25;;;2.92;;
43990;SDS011;29654;50.784;20.604;2023-02-26T14:53:23;4.75;;;2.72;;
43990;SDS011;29654;50.784;20.604;2023-02-26T14:59:04;4.07;;;2.72;;
43990;SDS011;29654;50.784;20.604;2023-02-26T15:04:39;6.38;;;3.70;;
43990;SDS011;29654;50.784;20.604;2023-02-26T15:10:30;3.88;;;2.55;;
43990;SDS011;29654;50.784;20.604;2023-02-26T15:15:47;3.30;;;2.60;;
43990;SDS011;29654;50.784;20.604;2023-02-26T15:20:59;3.90;;;2.53;;
43990;SDS011;29654;50.784;20.604;2023-02-26T15:26:15;48.38;;;26.52;;
43990;SDS011;29654;50.784;20.604;2023-02-26T15:31:26;12.00;;;7.55;;
43990;SDS011;29654;50.784;20.604;2023-02-26T15:36:33;7.72;;;5.13;;
43990;SDS011;29654;50.784;20.604;2023-02-26T15:41:37;6.78;;;4.68;;
43990;SDS011;29654;50.784;20.604;2023-02-26T15:46:41;5.78;;;3.58;;
43990;SDS011;29654;50.784;20.604;2023-02-26T15:51:47;5.18;;;3.25;;
43990;SDS011;29654;50.784;20.604;2023-02-26T15:56:52;5.20;;;3.33;;
43990;SDS011;29654;50.784;20.604;2023-02-26T16:01:54;5.03;;;3.40;;
43990;SDS011;29654;50.784;20.604;2023-02-26T16:06:57;5.20;;;3.33;;
43990;SDS011;29654;50.784;20.604;2023-02-26T16:12:02;3.58;;;3.00;;
43990;SDS011;29654;50.784;20.604;2023-02-26T16:17:10;8.55;;;5.45;;
43990;SDS011;29654;50.784;20.604;2023-02-26T16:22:16;8.35;;;5.40;;
43990;SDS011;29654;50.784;20.604;2023-02-26T16:27:24;4.47;;;3.35;;
43990;SDS011;29654;50.784;20.604;2023-02-26T16:32:30;5.45;;;3.35;;
43990;SDS011;29654;50.784;20.604;2023-02-26T16:37:35;4.57;;;3.72;;
43990;SDS011;29654;50.784;20.604;2023-02-26T16:42:44;4.57;;;3.38;;
43990;SDS011;29654;50.784;20.604;2023-02-26T16:47:55;11.00;;;8.00;;
43990;SDS011;29654;50.784;20.604;2023-02-26T16:53:00;8.38;;;6.25;;
43990;SDS011;29654;50.784;20.604;2023-02-26T16:58:10;6.68;;;5.40;;
43990;SDS011;29654;50.784;20.604;2023-02-26T17:03:16;9.40;;;6.00;;
43990;SDS011;29654;50.784;20.604;2023-02-26T17:08:24;8.38;;;5.68;;
43990;SDS011;29654;50.784;20.604;2023-02-26T17:13:31;9.48;;;6.03;;
43990;SDS011;29654;50.784;20.604;2023-02-26T17:18:35;10.65;;;7.53;;
43990;SDS011;29654;50.784;20.604;2023-02-26T17:23:38;12.13;;;7.97;;
43990;SDS011;29654;50.784;20.604;2023-02-26T17:28:43;12.90;;;7.57;;
43990;SDS011;29654;50.784;20.604;2023-02-26T17:33:46;6.63;;;5.85;;
43990;SDS011;29654;50.784;20.604;2023-02-26T17:38:50;7.10;;;5.53;;
43990;SDS011;29654;50.784;20.604;2023-02-26T17:43:54;5.35;;;4.32;;
43990;SDS011;29654;50.784;20.604;2023-02-26T17:48:56;5.70;;;4.15;;
43990;SDS011;29654;50.784;20.604;2023-02-26T17:53:59;7.57;;;6.03;;
43990;SDS011;29654;50.784;20.604;2023-02-26T17:59:03;11.63;;;8.30;;
43990;SDS011;29654;50.784;20.604;2023-02-26T18:04:06;17.45;;;12.85;;
43990;SDS011;29654;50.784;20.604;2023-02-26T18:09:10;12.75;;;8.90;;
43990;SDS011;29654;50.784;20.604;2023-02-26T18:14:14;15.88;;;10.73;;
43990;SDS011;29654;50.784;20.604;2023-02-26T18:19:17;15.88;;;10.43;;
43990;SDS011;29654;50.784;20.604;2023-02-26T18:24:19;28.23;;;19.52;;
43990;SDS011;29654;50.784;20.604;2023-02-26T18:29:23;14.52;;;10.85;;
43990;SDS011;29654;50.784;20.604;2023-02-26T18:34:26;15.60;;;10.98;;
43990;SDS011;29654;50.784;20.604;2023-02-26T18:39:28;18.27;;;15.65;;
43990;SDS011;29654;50.784;20.604;2023-02-26T18:44:34;12.55;;;8.10;;
43990;SDS011;29654;50.784;20.604;2023-02-26T18:49:37;10.23;;;7.05;;
43990;SDS011;29654;50.784;20.604;2023-02-26T18:54:40;28.85;;;16.65;;
43990;SDS011;29654;50.784;20.604;2023-02-26T18:59:44;40.97;;;22.38;;
43990;SDS011;29654;50.784;20.604;2023-02-26T19:04:47;40.72;;;21.83;;
43990;SDS011;29654;50.784;20.604;2023-02-26T19:09:50;40.47;;;20.42;;
43990;SDS011;29654;50.784;20.604;2023-02-26T19:14:54;35.45;;;20.77;;
43990;SDS011;29654;50.784;20.604;2023-02-26T19:19:57;44.13;;;23.88;;
43990;SDS011;29654;50.784;20.604;2023-02-26T19:24:59;26.45;;;15.07;;
43990;SDS011;29654;50.784;20.604;2023-02-26T19:30:04;23.88;;;12.23;;
43990;SDS011;29654;50.784;20.604;2023-02-26T19:35:08;19.10;;;11.30;;
43990;SDS011;29654;50.784;20.604;2023-02-26T19:40:11;17.90;;;8.90;;
43990;SDS011;29654;50.784;20.604;2023-02-26T19:45:17;14.40;;;7.43;;
43990;SDS011;29654;50.784;20.604;2023-02-26T19:50:20;13.77;;;9.15;;
43990;SDS011;29654;50.784;20.604;2023-02-26T19:55:24;16.52;;;8.95;;
43990;SDS011;29654;50.784;20.604;2023-02-26T20:00:28;13.45;;;8.00;;
43990;SDS011;29654;50.784;20.604;2023-02-26T20:05:31;11.88;;;7.72;;
43990;SDS011;29654;50.784;20.604;2023-02-26T20:10:35;13.85;;;7.68;;
43990;SDS011;29654;50.784;20.604;2023-02-26T20:15:39;15.63;;;10.30;;
43990;SDS011;29654;50.784;20.604;2023-02-26T20:20:41;14.52;;;9.93;;
43990;SDS011;29654;50.784;20.604;2023-02-26T20:25:44;18.80;;;12.05;;
43990;SDS011;29654;50.784;20.604;2023-02-26T20:30:51;14.82;;;10.00;;
43990;SDS011;29654;50.784;20.604;2023-02-26T20:35:54;14.95;;;9.48;;
43990;SDS011;29654;50.784;20.604;2023-02-26T20:40:56;19.50;;;11.82;;
43990;SDS011;29654;50.784;20.604;2023-02-26T20:46:00;16.45;;;11.75;;
43990;SDS011;29654;50.784;20.604;2023-02-26T20:51:04;16.30;;;10.50;;
43990;SDS011;29654;50.784;20.604;2023-02-26T20:56:06;18.00;;;10.93;;
43990;SDS011;29654;50.784;20.604;2023-02-26T21:01:10;15.27;;;9.82;;
43990;SDS011;29654;50.784;20.604;2023-02-26T21:06:13;18.25;;;11.95;;
43990;SDS011;29654;50.784;20.604;2023-02-26T21:11:16;17.83;;;11.60;;
43990;SDS011;29654;50.784;20.604;2023-02-26T21:16:20;20.23;;;12.88;;
43990;SDS011;29654;50.784;20.604;2023-02-26T21:21:22;19.95;;;12.20;;
43990;SDS011;29654;50.784;20.604;2023-02-26T21:26:25;18.58;;;12.20;;
43990;SDS011;29654;50.784;20.604;2023-02-26T21:31:29;17.05;;;12.18;;
43990;SDS011;29654;50.784;20.604;2023-02-26T21:36:31;20.35;;;13.35;;
43990;SDS011;29654;50.784;20.604;2023-02-26T21:41:34;19.98;;;13.15;;
43990;SDS011;29654;50.784;20.604;2023-02-26T21:46:38;20.40;;;13.82;;
43990;SDS011;29654;50.784;20.604;2023-02-26T21:51:40;23.83;;;14.43;;
43990;SDS011;29654;50.784;20.604;2023-02-26T21:56:43;25.08;;;16.33;;
43990;SDS011;29654;50.784;20.604;2023-02-26T22:01:47;21.65;;;12.93;;
43990;SDS011;29654;50.784;20.604;2023-02-26T22:06:50;19.42;;;11.25;;
43990;SDS011;29654;50.784;20.604;2023-02-26T22:11:53;14.18;;;9.70;;
43990;SDS011;29654;50.784;20.604;2023-02-26T22:16:57;15.10;;;9.63;;
43990;SDS011;29654;50.784;20.604;2023-02-26T22:21:59;15.20;;;9.07;;
43990;SDS011;29654;50.784;20.604;2023-02-26T22:27:03;16.55;;;8.70;;
43990;SDS011;29654;50.784;20.604;2023-02-26T22:32:07;16.48;;;8.68;;
43990;SDS011;29654;50.784;20.604;2023-02-26T22:37:09;15.70;;;9.02;;
43990;SDS011;29654;50.784;20.604;2023-02-26T22:42:12;14.88;;;8.68;;
43990;SDS011;29654;50.784;20.604;2023-02-26T22:47:16;15.27;;;8.38;;
43990;SDS011;29654;50.784;20.604;2023-02-26T22:52:18;13.27;;;7.85;;
43990;SDS011;29654;50.784;20.604;2023-02-26T22:57:21;14.52;;;8.30;;
43990;SDS011;29654;50.784;20.604;2023-02-26T23:02:25;14.85;;;8.93;;
43990;SDS011;29654;50.784;20.604;2023-02-26T23:07:28;12.35;;;8.80;;
43990;SDS011;29654;50.784;20.604;2023-02-26T23:12:31;14.70;;;7.80;;
43990;SDS011;29654;50.784;20.604;2023-02-26T23:17:35;12.82;;;7.53;;
43990;SDS011;29654;50.784;20.604;2023-02-26T23:22:39;13.77;;;7.13;;
43990;SDS011;29654;50.784;20.604;2023-02-26T23:27:45;12.05;;;6.50;;
43990;SDS011;29654;50.784;20.604;2023-02-26T23:32:49;8.73;;;5.47;;
43990;SDS011;29654;50.784;20.604;2023-02-26T23:37:54;10.07;;;6.38;;
43990;SDS011;29654;50.784;20.604;2023-02-26T23:42:57;11.32;;;5.45;;
43990;SDS011;29654;50.784;20.604;2023-02-26T23:48:01;8.70;;;5.07;;
43990;SDS011;29654;50.784;20.604;2023-02-26T23:53:03;16.67;;;11.13;;
43990;SDS011;29654;50.784;20.604;2023-02-26T23:58:06;8.82;;;5.25;;
